Disclaimer

Please do not use the information listed here in-flight or in-navigation, as they are not provided to us by the airports but are provided by volunteers, so they might be outdated.

Search


Regions


Airport information page

Radio informations:
Tower (TWR) - 120.4 MHz

Airport informations:
Latitude: 55° 53' 37.99" N
Longitude: 023° 23' 41.91" E
Elevation: 443 feet - 135 meters
Operating hours: Remarks
Operating agency: Military-civil joint use airport
Timezone: UTC+2(+3DT) - Last Sunday in March to last Sunday in October
Fuel: Jet fuel avaiable but type is unknown.

Runway information:
14R/32L - 10761 x 105 feet< - >3280 x 32 meters
14L/32R - 11483 x 148 feet< - >3500 x 45 meters

Recent METARs:
EYSA 181850Z 04011KT 9999 -DZ FEW017 BKN020 OVC044 03/01 Q1029 R14L/09//95 WHT TEMPO FEW023 BKN053 BLU
EYSA 181920Z 02009KT 9999 SCT017 BKN020 OVC033 02/01 Q1029 R14L/09//95 WHT NOSIG
EYSA 181950Z 03010KT 9999 FEW016 OVC022 02/01 Q1029 R14L/09//95 WHT NOSIG

Airport on the map: